Sioux Gateway Col. Bud Day Field
KSUX : now visible

Airfield :











YOU CAN JOIN US ON...

 
LOGIN :

Register | Disclaimer

   EN    FR    IT 

 









Legend :    VFR   Marginal VFR   IFR   Intensive IFR   Very Intensive IFR
Visi :
Ceiling :
>= 8 km
>= 3000ft
5 to 8 km
1000 to 3000 ft
1500m to 5 km
500 to 1000 ft
800 to 1500m
200 to 500 ft
< 800m
< 200 ft
Symbols :   Thunderstorms  Fog  Heavy snow  Heavy precipitations  Wind > 20 kt






- Airport Elevation : 1098 ft
- IATA code : SUX


KSUX - Sioux Gateway Col. Bud Day Field

CURRENT METAR :
  • 252001Z 08013G22KT 3SM -SN BKN027 OVC037 M04/M08 A2985 RMK AO2 P0000 T10441078

EXPIRED METARs :
  • 251952Z 07015G22KT 1 3/4SM -SN BKN025 OVC036 M05/M08 A2986 RMK AO2 SLP126 P0001 T10501078
  • 251938Z 07011KT 2SM -SN BKN027 OVC038 M04/M07 A2986 RMK AO2 P0001 T10441072
  • 251859Z 08013G19KT 1 1/2SM -SN OVC021 M04/M08 A2988 RMK AO2 P0000 T10441078
  • 251852Z 08013G20KT 2SM -SN BKN023 OVC032 M04/M08 A2989 RMK AO2 SLP137 P0001 T10441078
  • 251814Z 08011G22KT 2SM -SN BKN025 OVC034 M04/M08 A2990 RMK AO2 P0000 T10441078
  • 251752Z 08014G21KT 1SM R31/P6000FT -SN BR VV008 M05/M07 A2991 RMK AO2 SLP145 P0001 60002 I6000 T10501072 11050 21067 58010
  • 251722Z 08013KT 1/2SM R31/P6000FT SN OVC007 M05/M08 A2993 RMK AO2 P0000 T10501078
  • 251714Z 08012KT 1SM R31/P6000FT -SN BKN020 OVC029 M05/M08 A2994 RMK AO2 P0000 T10501078

TAF KSUX
Valid from the 25 at 18:00 until the 26 at 18:00 UTC


251740Z 2518/2618 07012KT 1SM -SN BKN007 OVC025
FM252000 07014G20KT 3SM -SN SCT025 OVC035
FM260200 04013G20KT 1SM -SN BR BKN010 OVC030
FM260900 03012G20KT 3SM -SN BR BKN020
FM261400 36013KT P6SM VCSH BKN020
KZMP FIR / North America



MET'MAP, your aeronautical weather chart ! - Copyright ORBIFLY December 2007 - Disclaimer

ORBIFLY MET'MAP TEAM :

Programming & Development : Alexandra Zaïnal
Concept & original design : Baudouin d'Aumeries
Assistance for programming : Marc-Olivier Méhu
Technical & hardware support : Manuel Goepfert

Contact : metmap@orbifly.com




SOURCES & CREDITS :

   NOAA       Earth
Advisory